createdAt,value
2018-05-07T00:00:05.184Z,100325.48
2018-05-07T00:02:38.626Z,100324.73
2018-05-07T00:05:12.962Z,100329.81
2018-05-07T00:07:45.290Z,100321.05
2018-05-07T00:10:17.568Z,100316.19
2018-05-07T00:12:51.864Z,100319.16
2018-05-07T00:15:25.809Z,100316.26
2018-05-07T00:17:59.092Z,100318.11
2018-05-07T00:20:31.400Z,100318.27
2018-05-07T00:23:05.623Z,100311.85
2018-05-07T00:25:38.193Z,100314.82
2018-05-07T00:28:09.638Z,100315.84
2018-05-07T00:30:42.773Z,100313.14
2018-05-07T00:33:16.781Z,100303.91
2018-05-07T00:35:49.129Z,100313.30
2018-05-07T00:38:21.890Z,100300.44
2018-05-07T00:40:53.371Z,100304.53
2018-05-07T00:43:27.417Z,100297.53
2018-05-07T00:46:00.907Z,100295.38
2018-05-07T00:48:39.445Z,100293.73
2018-05-07T00:51:13.886Z,100296.51
2018-05-07T00:53:46.202Z,100294.54
2018-05-07T00:56:23.921Z,100292.27
2018-05-07T00:58:57.447Z,100287.09
2018-05-07T01:01:28.595Z,100294.00
2018-05-07T01:04:00.745Z,100293.55
2018-05-07T01:06:33.853Z,100301.15
2018-05-07T01:09:07.776Z,100299.50
2018-05-07T01:11:39.985Z,100303.75
2018-05-07T01:14:14.031Z,100306.29
2018-05-07T01:16:46.108Z,100304.55
2018-05-07T01:19:21.621Z,100307.66
2018-05-07T01:21:54.720Z,100311.28
2018-05-07T01:24:28.813Z,100305.19
2018-05-07T01:27:00.571Z,100307.67
2018-05-07T01:29:33.765Z,100311.05
2018-05-07T01:32:06.270Z,100310.23
2018-05-07T01:34:38.917Z,100305.77
2018-05-07T01:37:12.162Z,100308.88
2018-05-07T01:39:45.394Z,100308.31
2018-05-07T01:42:23.407Z,100310.31
2018-05-07T01:45:01.737Z,100306.44
2018-05-07T01:47:37.161Z,100305.23
2018-05-07T01:50:09.840Z,100306.45
2018-05-07T01:52:43.837Z,100309.72
2018-05-07T01:55:18.052Z,100304.46
2018-05-07T01:57:51.916Z,100305.69
2018-05-07T02:00:25.028Z,100301.99
2018-05-07T02:02:57.590Z,100298.05
2018-05-07T02:05:30.331Z,100299.08
2018-05-07T02:08:04.635Z,100291.90
2018-05-07T02:10:37.800Z,100291.42
2018-05-07T02:13:11.007Z,100287.70
2018-05-07T02:15:44.437Z,100284.23
2018-05-07T02:18:15.855Z,100286.91
2018-05-07T02:20:48.029Z,100288.31
2018-05-07T02:23:21.159Z,100289.86
2018-05-07T02:25:53.312Z,100286.25
2018-05-07T02:28:26.868Z,100288.94
2018-05-07T02:31:00.049Z,100283.27
2018-05-07T02:33:33.175Z,100284.33
2018-05-07T02:36:05.542Z,100276.38
2018-05-07T02:38:38.707Z,100280.29
2018-05-07T02:41:11.335Z,100276.42
2018-05-07T02:43:44.567Z,100274.50
2018-05-07T02:46:18.591Z,100260.63
2018-05-07T02:48:52.942Z,100265.09
2018-05-07T02:51:26.189Z,100262.83
2018-05-07T02:53:59.427Z,100257.32
2018-05-07T02:56:33.965Z,100251.66
2018-05-07T02:59:05.607Z,100253.92
2018-05-07T03:01:39.463Z,100253.67
2018-05-07T03:04:14.136Z,100251.77
2018-05-07T03:06:46.492Z,100251.52
2018-05-07T03:09:19.750Z,100245.94
2018-05-07T03:11:53.284Z,100244.13
2018-05-07T03:14:27.812Z,100237.53
2018-05-07T03:17:01.222Z,100239.14
2018-05-07T03:19:35.197Z,100241.16
2018-05-07T03:22:09.125Z,100223.06
2018-05-07T03:24:41.492Z,100238.14
2018-05-07T03:27:15.765Z,100235.87
2018-05-07T03:29:50.791Z,100238.56
2018-05-07T03:32:23.013Z,100236.50
2018-05-07T03:34:56.223Z,100236.83
2018-05-07T03:37:29.385Z,100238.58
2018-05-07T03:40:03.450Z,100239.80
2018-05-07T03:42:36.002Z,100244.67
2018-05-07T03:45:10.165Z,100241.45
2018-05-07T03:47:44.759Z,100238.46
2018-05-07T03:50:18.203Z,100236.94
2018-05-07T03:52:51.753Z,100237.14
2018-05-07T03:55:24.871Z,100235.93
2018-05-07T03:57:58.809Z,100236.28
2018-05-07T04:00:31.986Z,100239.34
2018-05-07T04:03:05.776Z,100235.80
2018-05-07T04:05:39.213Z,100232.65
2018-05-07T04:08:12.470Z,100233.44
2018-05-07T04:10:44.920Z,100235.84
2018-05-07T04:13:16.434Z,100236.55
2018-05-07T04:15:47.972Z,100241.67
2018-05-07T04:20:38.248Z,100238.66
2018-05-07T04:24:20.523Z,100237.97
2018-05-07T04:26:51.991Z,100234.44
2018-05-07T04:29:26.835Z,100241.32
2018-05-07T04:32:00.003Z,100228.69
2018-05-07T04:34:32.159Z,100230.41
2018-05-07T04:37:06.108Z,100231.45
2018-05-07T04:39:38.377Z,100237.91
2018-05-07T04:42:13.107Z,100228.87
2018-05-07T04:44:46.300Z,100235.44
2018-05-07T04:47:19.582Z,100236.58
2018-05-07T04:49:53.555Z,100252.41
2018-05-07T04:52:27.372Z,100245.62
2018-05-07T04:55:01.717Z,100243.50
2018-05-07T04:57:35.623Z,100239.53
2018-05-07T05:00:07.989Z,100250.44
2018-05-07T05:02:42.045Z,100241.94
2018-05-07T05:05:18.142Z,100246.84
2018-05-07T05:07:52.454Z,100251.41
2018-05-07T05:10:26.402Z,100240.63
2018-05-07T05:12:58.951Z,100247.85
2018-05-07T05:15:31.127Z,100249.05
2018-05-07T05:18:05.027Z,100248.71
2018-05-07T05:20:38.137Z,100253.53
2018-05-07T05:23:10.322Z,100245.42
2018-05-07T05:25:43.526Z,100244.42
2018-05-07T05:28:15.530Z,100251.27
2018-05-07T05:30:48.814Z,100262.98
2018-05-07T05:33:21.998Z,100255.55
2018-05-07T05:35:54.301Z,100260.19
2018-05-07T05:38:28.541Z,100250.97
2018-05-07T05:41:00.972Z,100255.14
2018-05-07T05:43:32.406Z,100259.41
2018-05-07T05:46:06.169Z,100254.73
2018-05-07T05:48:37.848Z,100255.03
2018-05-07T05:51:09.110Z,100262.50
2018-05-07T05:53:41.327Z,100258.17
2018-05-07T05:56:13.901Z,100267.34
2018-05-07T05:58:47.266Z,100266.77
2018-05-07T06:01:21.209Z,100256.66
2018-05-07T06:03:53.889Z,100264.65
2018-05-07T06:06:28.280Z,100268.91
2018-05-07T06:09:00.184Z,100269.06
2018-05-07T06:11:33.530Z,100268.34
2018-05-07T06:14:06.872Z,100262.42
2018-05-07T06:16:39.131Z,100259.83
2018-05-07T06:19:13.051Z,100271.75
2018-05-07T06:21:45.582Z,100271.75
2018-05-07T06:24:17.102Z,100279.12
2018-05-07T06:26:49.498Z,100277.25
2018-05-07T06:29:22.948Z,100279.25
2018-05-07T06:31:57.274Z,100273.91
2018-05-07T06:34:30.809Z,100268.83
2018-05-07T06:37:02.467Z,100270.07
2018-05-07T06:39:37.054Z,100268.40
2018-05-07T06:42:08.340Z,100272.23
2018-05-07T06:44:41.543Z,100270.20
2018-05-07T06:47:15.817Z,100273.16
2018-05-07T06:49:47.764Z,100271.59
2018-05-07T06:52:22.733Z,100280.96
2018-05-07T06:57:53.106Z,100264.67
2018-05-07T07:00:27.352Z,100264.14
2018-05-07T07:03:03.074Z,100265.50
2018-05-07T07:05:35.990Z,100265.09
2018-05-07T07:08:07.530Z,100265.86
2018-05-07T07:10:41.442Z,100264.72
2018-05-07T07:13:14.863Z,100263.61
2018-05-07T07:15:48.794Z,100263.16
2018-05-07T07:18:21.144Z,100257.56
2018-05-07T07:20:53.423Z,100259.86
2018-05-07T07:23:25.035Z,100256.09
2018-05-07T07:26:00.063Z,100251.33
2018-05-07T07:28:31.456Z,100253.53
2018-05-07T07:31:05.107Z,100252.30
2018-05-07T07:33:39.020Z,100253.55
2018-05-07T07:36:11.895Z,100252.55
2018-05-07T07:38:44.499Z,100253.63
2018-05-07T07:41:17.810Z,100255.81
2018-05-07T07:43:50.457Z,100251.68
2018-05-07T07:46:21.964Z,100247.23
2018-05-07T07:48:54.453Z,100240.83
2018-05-07T07:51:30.127Z,100241.83
2018-05-07T07:54:01.448Z,100245.56
2018-05-07T07:56:34.470Z,100234.86
2018-05-07T07:59:06.674Z,100244.36
2018-05-07T08:01:39.737Z,100239.91
2018-05-07T08:04:13.681Z,100249.66
2018-05-07T08:06:47.074Z,100231.88
2018-05-07T08:09:19.430Z,100239.84
2018-05-07T08:14:23.160Z,100233.06
2018-05-07T08:16:56.189Z,100230.50
2018-05-07T08:19:29.227Z,100232.11
2018-05-07T08:22:01.665Z,100228.06
2018-05-07T08:24:33.153Z,100228.93
2018-05-07T08:27:05.674Z,100226.93
2018-05-07T08:29:38.589Z,100221.91
2018-05-07T08:32:10.770Z,100218.20
2018-05-07T08:34:44.087Z,100222.09
2018-05-07T08:37:17.334Z,100218.96
2018-05-07T08:39:49.619Z,100213.31
2018-05-07T08:42:21.592Z,100210.89
2018-05-07T08:44:53.453Z,100215.41
2018-05-07T08:47:24.979Z,100213.45
2018-05-07T08:50:00.406Z,100214.29
2018-05-07T08:52:37.153Z,100207.34
2018-05-07T08:55:08.704Z,100204.52
2018-05-07T08:57:42.598Z,100256.05
2018-05-07T09:00:18.596Z,100203.73
2018-05-07T09:02:49.917Z,100209.09
2018-05-07T09:05:22.191Z,100201.75
2018-05-07T09:07:55.141Z,100202.25
2018-05-07T09:10:26.888Z,100206.16
2018-05-07T09:13:04.090Z,100208.25
2018-05-07T09:15:37.246Z,100201.45
2018-05-07T09:18:12.124Z,100191.42
2018-05-07T09:20:47.022Z,100197.11
2018-05-07T09:23:19.631Z,100184.25
2018-05-07T09:25:53.300Z,100191.83
2018-05-07T09:28:26.848Z,100185.97
2018-05-07T09:31:00.168Z,100183.95
2018-05-07T09:33:35.952Z,100181.34
2018-05-07T09:36:10.181Z,100174.70
2018-05-07T09:38:44.653Z,100170.50
2018-05-07T09:41:18.919Z,100167.55
2018-05-07T09:43:51.265Z,100165.16
2018-05-07T09:46:24.516Z,100174.61
2018-05-07T09:48:58.965Z,100166.47
2018-05-07T09:51:33.974Z,100165.05
2018-05-07T09:54:14.236Z,100166.23
2018-05-07T09:56:55.273Z,100162.29
2018-05-07T09:59:30.571Z,100157.19
2018-05-07T10:02:03.513Z,100160.77
2018-05-07T10:04:40.033Z,100160.73
2018-05-07T20:33:23.570Z,99713.66
2018-05-07T20:35:57.919Z,99726.02
2018-05-07T20:38:34.161Z,99725.06
2018-05-07T20:41:07.579Z,99725.48
2018-05-07T20:43:43.205Z,99723.97
2018-05-07T20:46:15.625Z,99723.68
2018-05-07T20:48:48.926Z,99730.59
2018-05-07T20:51:22.148Z,99724.58
2018-05-07T20:53:57.503Z,99724.16
2018-05-07T20:56:30.153Z,99724.89
2018-05-07T20:59:03.332Z,99728.63
2018-05-07T21:01:35.119Z,99735.16
2018-05-07T21:04:08.035Z,99733.02
2018-05-07T21:06:40.701Z,99740.23
2018-05-07T21:09:12.035Z,99737.02
2018-05-07T21:11:44.493Z,99736.02
2018-05-07T21:14:17.943Z,99740.52
2018-05-07T21:16:50.442Z,99734.48
2018-05-07T21:19:23.938Z,99736.34
2018-05-07T21:21:55.477Z,99729.77
2018-05-07T21:24:28.519Z,99730.17
2018-05-07T21:26:59.938Z,99743.49
2018-05-07T21:29:31.579Z,99742.63
2018-05-07T21:32:03.953Z,99745.19
2018-05-07T21:34:35.352Z,99748.43
2018-05-07T21:37:07.827Z,99748.70
2018-05-07T21:39:39.481Z,99751.85
2018-05-07T21:42:10.947Z,99751.45
2018-05-07T21:44:42.283Z,99751.61
2018-05-07T21:47:15.549Z,99753.41
2018-05-07T21:49:47.715Z,99754.70
2018-05-07T21:52:19.908Z,99748.02
2018-05-07T21:54:51.326Z,99744.97
2018-05-07T21:57:24.166Z,99743.09
2018-05-07T21:59:55.627Z,99746.16
2018-05-07T22:02:27.982Z,99749.09
2018-05-07T22:05:00.336Z,99738.91
2018-05-07T22:07:31.775Z,99741.28
2018-05-07T22:10:03.731Z,99740.45
2018-05-07T22:12:35.044Z,99742.57
2018-05-07T22:15:07.300Z,99746.66
2018-05-07T22:17:38.608Z,99746.52
2018-05-07T22:20:10.845Z,99745.69
2018-05-07T22:22:44.739Z,99754.42
2018-05-07T22:25:18.759Z,99750.77
2018-05-07T22:27:51.099Z,99749.14
2018-05-07T22:30:23.726Z,99752.16
2018-05-07T22:32:55.064Z,99746.59
2018-05-07T22:35:26.375Z,99741.92
2018-05-07T22:37:59.046Z,99736.19
2018-05-07T22:40:30.562Z,99741.67
2018-05-07T22:43:02.686Z,99744.27
2018-05-07T22:45:33.998Z,99738.66
2018-05-07T22:48:05.735Z,99740.47
2018-05-07T22:50:38.046Z,99737.45
2018-05-07T22:53:10.272Z,99733.35
2018-05-07T22:55:41.726Z,99740.89
2018-05-07T22:58:13.850Z,99738.97
2018-05-07T23:00:45.586Z,99738.83
2018-05-07T23:03:17.352Z,99727.05
2018-05-07T23:05:50.215Z,99732.78
2018-05-07T23:08:22.662Z,99730.73
2018-05-07T23:10:54.906Z,99733.09
2018-05-07T23:13:26.224Z,99731.42
2018-05-07T23:15:57.591Z,99736.81
2018-05-07T23:18:29.332Z,99720.50
2018-05-07T23:21:02.625Z,99723.91
2018-05-07T23:23:34.658Z,99726.52
2018-05-07T23:26:06.082Z,99724.05
2018-05-07T23:28:38.315Z,99728.45
2018-05-07T23:31:10.580Z,99720.67
2018-05-07T23:33:42.061Z,99726.33
2018-05-07T23:36:15.716Z,99713.19
2018-05-07T23:38:48.196Z,99709.22
2018-05-07T23:41:20.468Z,99710.34
2018-05-07T23:43:53.156Z,99704.45
2018-05-07T23:46:25.739Z,99705.13
2018-05-07T23:48:58.015Z,99699.25
2018-05-07T23:51:30.466Z,99702.39
2018-05-07T23:54:02.959Z,99698.86
2018-05-07T23:56:35.316Z,99692.98
2018-05-07T23:59:07.015Z,99690.66
